Time;durP1;ratioP1;P1;durP2;ratioP2;P2;SDS_P1;SDS_P2;PMS_P1;PMS_P2;Temp;Humidity;BMP_temperature;BMP_pressure;BME280_temperature;BME280_humidity;BME280_pressure;Samples;Min_cycle;Max_cycle;Signal;HPM_P1;HPM_P2
2022/03/10 00:02:02;;;;;;;;;;;3.20;73.60;;;;;;5093089;28;19948;-86
2022/03/10 00:04:28;;;;;;;;;;;3.20;74.40;;;;;;5099148;23;19928;-87
2022/03/10 00:06:54;;;;;;;;;;;3.30;74.20;;;;;;5093193;28;19912;-86
2022/03/10 00:09:19;;;;;;;;;;;3.10;74.30;;;;;;5093122;28;20431;-86
2022/03/10 00:11:47;;;;;;;;;;;2.70;75.90;;;;;;5093194;28;19908;-86
2022/03/10 00:14:13;;;;;;;;;;;2.40;78.40;;;;;;5075081;28;19919;-86
2022/03/10 00:16:39;;;;;;;;;;;2.30;78.40;;;;;;5073021;28;20003;-86
2022/03/10 00:19:05;;;;;;;;;;;2.10;77.80;;;;;;5087622;28;19923;-86
2022/03/10 00:21:31;;;;;;;;;;;1.90;78.80;;;;;;5093075;28;19915;-86
2022/03/10 00:23:56;;;;;;;;;;;1.80;79.80;;;;;;5077824;28;19912;-86
2022/03/10 00:26:22;;;;;;;;;;;1.80;79.80;;;;;;5072806;28;19931;-86
2022/03/10 00:28:47;;;;;;;;;;;1.90;79.80;;;;;;5073094;28;20277;-87
2022/03/10 00:31:13;;;;;;;;;;;1.90;79.80;;;;;;5072716;28;19932;-86
2022/03/10 00:33:38;;;;;;;;;;;2.10;79.70;;;;;;5077572;28;19923;-86
2022/03/10 00:36:06;;;;;;;;;;;2.20;78.80;;;;;;5077327;28;19913;-86
2022/03/10 00:38:31;;;;;;;;;;;2.20;78.40;;;;;;5072779;28;19912;-86
2022/03/10 00:40:59;;;;;;;;;;;2.00;78.30;;;;;;5072771;28;19928;-86
2022/03/10 00:43:24;;;;;;;;;;;2.10;78.30;;;;;;5082520;28;19912;-86
2022/03/10 00:45:50;;;;;;;;;;;2.10;78.20;;;;;;5092468;28;19952;-86
2022/03/10 00:48:16;;;;;;;;;;;2.20;77.90;;;;;;5085185;28;19916;-86
2022/03/10 00:50:41;;;;;;;;;;;2.20;77.70;;;;;;5076552;28;19977;-86
2022/03/10 00:53:07;;;;;;;;;;;2.20;77.30;;;;;;5081818;28;19920;-86
2022/03/10 00:55:32;;;;;;;;;;;2.10;77.20;;;;;;5096650;28;19946;-86
2022/03/10 00:57:58;;;;;;;;;;;2.00;77.90;;;;;;5088949;28;20246;-86
2022/03/10 01:00:25;;;;;;;;;;;1.90;79.20;;;;;;5076328;28;20281;-86
2022/03/10 01:02:51;;;;;;;;;;;1.90;78.60;;;;;;5079674;28;19920;-86
2022/03/10 01:05:16;;;;;;;;;;;1.90;77.50;;;;;;5076037;28;19920;-86
2022/03/10 01:07:42;;;;;;;;;;;1.90;77.90;;;;;;5080840;28;19916;-86
2022/03/10 01:10:08;;;;;;;;;;;2.10;78.40;;;;;;5065487;28;19919;-86
2022/03/10 01:12:34;;;;;;;;;;;2.20;78.00;;;;;;5076080;28;19908;-86
2022/03/10 01:15:00;;;;;;;;;;;2.40;77.30;;;;;;5076056;28;20254;-86
2022/03/10 01:17:25;;;;;;;;;;;2.40;76.70;;;;;;5076031;28;19916;-86
2022/03/10 01:19:51;;;;;;;;;;;2.50;76.60;;;;;;5077606;28;20019;-86
2022/03/10 01:22:16;;;;;;;;;;;2.60;76.80;;;;;;5096176;28;19915;-87
2022/03/10 01:24:42;;;;;;;;;;;2.70;76.70;;;;;;5096062;28;19923;-86
2022/03/10 01:27:10;;;;;;;;;;;2.50;75.90;;;;;;5077897;28;19908;-86
2022/03/10 01:29:36;;;;;;;;;;;2.30;75.90;;;;;;5077877;28;19912;-86
2022/03/10 01:32:02;;;;;;;;;;;2.10;76.70;;;;;;5075745;28;19962;-86
2022/03/10 01:34:27;;;;;;;;;;;2.00;77.40;;;;;;5076771;28;19916;-86
2022/03/10 01:36:53;;;;;;;;;;;2.00;78.50;;;;;;5075662;28;20385;-86
2022/03/10 01:39:18;;;;;;;;;;;1.90;79.00;;;;;;5090785;28;19920;-86
2022/03/10 01:41:45;;;;;;;;;;;1.90;78.90;;;;;;5095751;28;19915;-86
2022/03/10 01:44:11;;;;;;;;;;;1.80;79.00;;;;;;5084051;28;19920;-86
2022/03/10 01:46:37;;;;;;;;;;;1.80;79.00;;;;;;5075438;28;19954;-86
2022/03/10 01:49:04;;;;;;;;;;;1.70;79.00;;;;;;5087065;28;19991;-86
2022/03/10 01:51:30;;;;;;;;;;;1.70;79.90;;;;;;5095570;28;19908;-86
2022/03/10 01:53:56;;;;;;;;;;;1.70;80.20;;;;;;5086404;28;19974;-86
2022/03/10 01:56:23;;;;;;;;;;;1.60;80.20;;;;;;5075310;28;20425;-86
2022/03/10 01:58:49;;;;;;;;;;;1.60;79.80;;;;;;5084060;28;19954;-86
2022/03/10 02:01:15;;;;;;;;;;;1.60;79.40;;;;;;5095404;28;19908;-86
2022/03/10 02:03:41;;;;;;;;;;;1.60;78.60;;;;;;5088014;28;19921;-86
2022/03/10 02:06:08;;;;;;;;;;;1.80;78.20;;;;;;5076255;28;19939;-86
2022/03/10 02:11:18;;;;;;;;;;;2.10;76.90;;;;;;5095196;28;20415;-86
2022/03/10 02:13:43;;;;;;;;;;;2.10;76.70;;;;;;5087850;28;20006;-86
2022/03/10 02:18:54;;;;;;;;;;;1.80;76.60;;;;;;5076662;28;19978;-86
2022/03/10 02:21:19;;;;;;;;;;;1.40;80.50;;;;;;5084408;28;20360;-85
2022/03/10 02:23:45;;;;;;;;;;;1.40;83.50;;;;;;5094960;28;19908;-86
2022/03/10 02:26:11;;;;;;;;;;;1.60;85.30;;;;;;5095152;28;19912;-86
2022/03/10 02:28:37;;;;;;;;;;;1.60;85.70;;;;;;5094845;28;20251;-85
2022/03/10 02:31:02;;;;;;;;;;;1.60;85.20;;;;;;5081364;28;19916;-86
2022/03/10 02:33:28;;;;;;;;;;;1.60;84.30;;;;;;5075278;28;19916;-86
2022/03/10 02:35:53;;;;;;;;;;;1.60;83.10;;;;;;5091292;28;19957;-86
2022/03/10 02:38:19;;;;;;;;;;;1.60;82.10;;;;;;5094767;28;19908;-86
2022/03/10 02:40:48;;;;;;;;;;;1.50;81.10;;;;;;5084058;28;19962;-86
2022/03/10 02:43:14;;;;;;;;;;;1.40;80.50;;;;;;5074378;28;20466;-86
2022/03/10 02:45:39;;;;;;;;;;;1.30;79.90;;;;;;5074291;28;20000;-86
2022/03/10 02:48:05;;;;;;;;;;;1.30;80.60;;;;;;5074286;28;19909;-86
2022/03/10 02:50:30;;;;;;;;;;;1.20;81.80;;;;;;5075340;28;20370;-86
2022/03/10 02:52:56;;;;;;;;;;;1.10;82.10;;;;;;5074220;28;19966;-86
2022/03/10 02:55:22;;;;;;;;;;;1.00;83.30;;;;;;5074164;28;19913;-86
2022/03/10 02:57:48;;;;;;;;;;;1.00;84.10;;;;;;5057209;28;19987;-86
2022/03/10 03:00:14;;;;;;;;;;;1.10;84.60;;;;;;5074037;28;19912;-86
2022/03/10 03:02:40;;;;;;;;;;;1.20;84.60;;;;;;5074064;28;19915;-86
2022/03/10 03:05:06;;;;;;;;;;;1.20;83.90;;;;;;5082265;28;19920;-85
2022/03/10 03:07:32;;;;;;;;;;;1.00;83.40;;;;;;5073933;28;19967;-85
2022/03/10 03:09:58;;;;;;;;;;;0.90;84.30;;;;;;5073155;28;19908;-86
2022/03/10 03:12:23;;;;;;;;;;;1.00;85.80;;;;;;5073860;28;19915;-85
2022/03/10 03:14:49;;;;;;;;;;;0.90;86.20;;;;;;5081448;28;19999;-86
2022/03/10 03:17:15;;;;;;;;;;;0.60;85.70;;;;;;5093949;28;19908;-86
2022/03/10 03:19:40;;;;;;;;;;;0.30;85.60;;;;;;5088865;28;19913;-86
2022/03/10 03:22:06;;;;;;;;;;;0.30;85.80;;;;;;5073931;28;19908;-86
2022/03/10 03:24:31;;;;;;;;;;;0.30;86.20;;;;;;5078434;28;20316;-86
2022/03/10 03:26:57;;;;;;;;;;;0.30;86.70;;;;;;5094320;28;19912;-86
2022/03/10 03:29:23;;;;;;;;;;;0.30;86.90;;;;;;5093905;28;19908;-86
2022/03/10 03:31:48;;;;;;;;;;;0.30;86.80;;;;;;5093710;28;19908;-86
2022/03/10 03:34:14;;;;;;;;;;;0.30;86.60;;;;;;5091923;28;19920;-86
2022/03/10 03:36:40;;;;;;;;;;;0.40;86.50;;;;;;5093680;28;19930;-86
2022/03/10 03:39:06;;;;;;;;;;;0.50;86.30;;;;;;5093621;28;19908;-86
2022/03/10 03:41:31;;;;;;;;;;;0.70;85.90;;;;;;5093586;28;19934;-86
2022/03/10 03:43:57;;;;;;;;;;;0.80;85.10;;;;;;5093125;28;19915;-86
2022/03/10 03:46:23;;;;;;;;;;;0.80;84.30;;;;;;5073276;28;19912;-86
2022/03/10 03:48:48;;;;;;;;;;;0.80;83.70;;;;;;5073298;28;19957;-86
2022/03/10 03:51:14;;;;;;;;;;;0.90;83.60;;;;;;5090375;28;19916;-85
2022/03/10 03:53:39;;;;;;;;;;;0.70;83.50;;;;;;5093399;28;19970;-86
2022/03/10 03:56:05;;;;;;;;;;;0.50;83.90;;;;;;5075841;28;19913;-86
2022/03/10 03:58:30;;;;;;;;;;;0.50;83.70;;;;;;5073184;28;19917;-86
2022/03/10 04:00:56;;;;;;;;;;;0.50;82.90;;;;;;5073153;28;19908;-86
2022/03/10 04:03:21;;;;;;;;;;;0.50;83.00;;;;;;5072937;28;19916;-86
2022/03/10 04:05:47;;;;;;;;;;;0.80;83.50;;;;;;5081805;28;19939;-86
2022/03/10 04:08:12;;;;;;;;;;;0.80;82.70;;;;;;5073038;28;19915;-86
2022/03/10 04:10:38;;;;;;;;;;;0.80;82.30;;;;;;5072972;28;20281;-86
2022/03/10 04:13:05;;;;;;;;;;;0.80;82.10;;;;;;5073060;28;20396;-87
2022/03/10 04:15:31;;;;;;;;;;;0.90;82.40;;;;;;5085120;28;19912;-86
2022/03/10 04:17:56;;;;;;;;;;;1.00;82.10;;;;;;5093144;28;19961;-86
2022/03/10 04:20:22;;;;;;;;;;;1.10;82.00;;;;;;5091850;28;20331;-86
2022/03/10 04:22:47;;;;;;;;;;;1.20;81.60;;;;;;5097303;28;20259;-86
2022/03/10 04:25:13;;;;;;;;;;;1.00;81.00;;;;;;5087200;28;19916;-86
2022/03/10 04:27:40;;;;;;;;;;;1.10;80.60;;;;;;5077045;28;20385;-86
2022/03/10 04:30:05;;;;;;;;;;;1.10;80.30;;;;;;5076863;28;19954;-86
2022/03/10 04:32:40;;;;;;;;;;;1.20;80.00;;;;;;5076898;28;19908;-86
2022/03/10 04:35:06;;;;;;;;;;;1.10;79.90;;;;;;5081510;28;19912;-86
2022/03/10 04:37:31;;;;;;;;;;;0.90;80.50;;;;;;5096722;28;19918;-86
2022/03/10 04:39:57;;;;;;;;;;;0.70;81.00;;;;;;5097014;28;19909;-86
2022/03/10 04:42:22;;;;;;;;;;;0.60;81.80;;;;;;5096985;28;20019;-86
2022/03/10 04:44:48;;;;;;;;;;;0.60;81.70;;;;;;5090660;28;20007;-85
2022/03/10 04:47:13;;;;;;;;;;;0.70;81.10;;;;;;5089922;28;20003;-86
2022/03/10 04:49:39;;;;;;;;;;;0.80;80.90;;;;;;5093801;28;19912;-86
2022/03/10 04:52:06;;;;;;;;;;;0.90;80.80;;;;;;5076509;28;20031;-86
2022/03/10 04:54:31;;;;;;;;;;;0.90;80.40;;;;;;5079535;28;19915;-86
2022/03/10 04:56:57;;;;;;;;;;;0.90;80.40;;;;;;5096315;28;19911;-86
2022/03/10 04:59:25;;;;;;;;;;;0.60;80.30;;;;;;5096673;28;19962;-86
2022/03/10 05:01:50;;;;;;;;;;;0.60;80.80;;;;;;5096533;28;19908;-87
2022/03/10 05:04:16;;;;;;;;;;;0.70;81.20;;;;;;5095141;28;19925;-86
2022/03/10 05:06:41;;;;;;;;;;;0.80;81.30;;;;;;5088621;28;19951;-86
2022/03/10 05:09:07;;;;;;;;;;;0.90;81.30;;;;;;5096354;28;19962;-86
2022/03/10 05:11:32;;;;;;;;;;;0.90;81.60;;;;;;5096411;28;19919;-86
2022/03/10 05:13:58;;;;;;;;;;;1.00;81.90;;;;;;5096318;28;19908;-86
2022/03/10 05:16:23;;;;;;;;;;;1.00;81.80;;;;;;5077661;28;19908;-86
2022/03/10 05:18:49;;;;;;;;;;;1.00;81.30;;;;;;5076065;28;19999;-86
2022/03/10 05:21:15;;;;;;;;;;;0.80;81.70;;;;;;5091099;28;19946;-86
2022/03/10 05:23:40;;;;;;;;;;;0.60;82.60;;;;;;5096183;28;19919;-86
2022/03/10 05:26:06;;;;;;;;;;;0.50;83.20;;;;;;5080109;28;19966;-86
2022/03/10 05:28:31;;;;;;;;;;;0.40;83.80;;;;;;5076061;28;20007;-85
2022/03/10 05:30:57;;;;;;;;;;;0.40;83.90;;;;;;5075607;28;19909;-86
2022/03/10 05:33:22;;;;;;;;;;;0.50;83.10;;;;;;5074940;28;19919;-86
2022/03/10 05:35:48;;;;;;;;;;;0.30;82.60;;;;;;5076703;28;19962;-85
2022/03/10 05:38:14;;;;;;;;;;;0.20;83.20;;;;;;5075658;28;19943;-86
2022/03/10 05:40:40;;;;;;;;;;;0.00;83.00;;;;;;5075660;28;19998;-86
2022/03/10 05:43:06;;;;;;;;;;;0.10;83.40;;;;;;5075758;28;19909;-85
2022/03/10 05:45:31;;;;;;;;;;;0.00;82.70;;;;;;5085862;28;19920;-85
2022/03/10 05:47:57;;;;;;;;;;;0.00;83.10;;;;;;5095630;28;19912;-86
2022/03/10 05:50:24;;;;;;;;;;;0.00;83.40;;;;;;5085034;28;19999;-86
2022/03/10 05:52:49;;;;;;;;;;;0.00;83.30;;;;;;5074555;28;19955;-86
2022/03/10 05:55:16;;;;;;;;;;;0.10;83.50;;;;;;5075285;28;19950;-86
2022/03/10 05:57:41;;;;;;;;;;;0.30;82.80;;;;;;5073941;28;19928;-86
2022/03/10 06:00:09;;;;;;;;;;;0.40;81.70;;;;;;5073699;28;19909;-86
2022/03/10 06:02:34;;;;;;;;;;;0.50;81.40;;;;;;5074329;28;20408;-86
2022/03/10 06:05:00;;;;;;;;;;;0.60;81.30;;;;;;5062379;28;19921;-86
2022/03/10 06:07:26;;;;;;;;;;;0.70;80.90;;;;;;5074927;28;20268;-86
2022/03/10 06:09:52;;;;;;;;;;;0.60;80.70;;;;;;5074470;28;19919;-86
2022/03/10 06:12:23;;;;;;;;;;;0.50;81.40;;;;;;5053548;28;20026;-86
2022/03/10 06:14:48;;;;;;;;;;;0.40;83.40;;;;;;5074766;28;19974;-86
2022/03/10 06:17:14;;;;;;;;;;;0.40;83.40;;;;;;5073822;28;19912;-86
2022/03/10 06:19:39;;;;;;;;;;;0.40;83.10;;;;;;5074422;28;19962;-86
2022/03/10 06:22:05;;;;;;;;;;;0.50;82.70;;;;;;5073802;28;20214;-86
2022/03/10 06:24:30;;;;;;;;;;;0.40;83.20;;;;;;5073601;28;20386;-86
2022/03/10 06:26:56;;;;;;;;;;;0.50;83.40;;;;;;5050540;28;20362;-86
2022/03/10 06:29:22;;;;;;;;;;;0.60;83.10;;;;;;5073226;28;20398;-86
2022/03/10 06:31:47;;;;;;;;;;;0.50;83.40;;;;;;5072391;28;20312;-86
2022/03/10 06:34:13;;;;;;;;;;;0.60;83.60;;;;;;5071050;28;19974;-86
2022/03/10 06:36:38;;;;;;;;;;;0.80;83.60;;;;;;5084126;28;20002;-86
2022/03/10 06:39:06;;;;;;;;;;;0.90;83.50;;;;;;5086823;28;19912;-86
2022/03/10 06:41:31;;;;;;;;;;;1.00;83.20;;;;;;5057011;28;19969;-86
2022/03/10 06:43:57;;;;;;;;;;;1.20;82.70;;;;;;5065374;28;20369;-86
2022/03/10 06:46:22;;;;;;;;;;;1.30;82.20;;;;;;5068140;28;20011;-86
2022/03/10 06:48:48;;;;;;;;;;;1.40;82.00;;;;;;5063440;28;20348;-86
2022/03/10 06:51:14;;;;;;;;;;;1.40;81.90;;;;;;5054543;28;19919;-86
2022/03/10 06:53:39;;;;;;;;;;;1.40;81.60;;;;;;5072145;28;19920;-86
2022/03/10 06:56:05;;;;;;;;;;;1.40;82.00;;;;;;5071533;28;19935;-86
2022/03/10 06:58:31;;;;;;;;;;;1.40;82.20;;;;;;5069399;28;21161;-86
2022/03/10 07:00:56;;;;;;;;;;;1.40;82.10;;;;;;5072380;28;19920;-86
2022/03/10 07:03:22;;;;;;;;;;;1.50;81.80;;;;;;5069825;28;19999;-86
2022/03/10 07:05:47;;;;;;;;;;;1.60;81.70;;;;;;5061473;28;19924;-86
2022/03/10 07:08:13;;;;;;;;;;;1.80;81.40;;;;;;5066082;28;19974;-86
2022/03/10 07:10:39;;;;;;;;;;;1.90;81.30;;;;;;5068033;28;19912;-86
2022/03/10 07:13:04;;;;;;;;;;;2.00;81.50;;;;;;5071654;28;19916;-86
2022/03/10 07:15:30;;;;;;;;;;;2.10;81.50;;;;;;5071256;28;19912;-86
2022/03/10 07:17:55;;;;;;;;;;;2.20;81.20;;;;;;5076510;28;19919;-86
2022/03/10 07:20:21;;;;;;;;;;;2.20;81.20;;;;;;5070065;28;19977;-86
2022/03/10 07:22:47;;;;;;;;;;;2.30;81.20;;;;;;5065877;28;19927;-86
2022/03/10 07:25:13;;;;;;;;;;;2.40;81.60;;;;;;5064918;28;19920;-86
2022/03/10 07:27:38;;;;;;;;;;;2.50;81.40;;;;;;5067123;28;20266;-86
2022/03/10 07:30:04;;;;;;;;;;;2.70;80.90;;;;;;5073476;28;19937;-86
2022/03/10 07:32:30;;;;;;;;;;;2.90;79.70;;;;;;5072557;28;19908;-86
2022/03/10 07:34:56;;;;;;;;;;;3.00;79.20;;;;;;5075017;28;20654;-86
2022/03/10 07:37:21;;;;;;;;;;;3.10;79.00;;;;;;5062074;28;19912;-86
2022/03/10 07:39:47;;;;;;;;;;;3.20;79.00;;;;;;5072165;28;19917;-86
2022/03/10 07:42:13;;;;;;;;;;;3.40;78.60;;;;;;5070722;28;19931;-86
2022/03/10 07:44:38;;;;;;;;;;;3.50;78.30;;;;;;5068529;28;20280;-86
2022/03/10 07:47:04;;;;;;;;;;;3.70;77.50;;;;;;5068382;28;20393;-86
2022/03/10 07:49:30;;;;;;;;;;;3.90;77.40;;;;;;5068791;28;20295;-86
2022/03/10 07:51:56;;;;;;;;;;;4.00;77.80;;;;;;5071184;28;19920;-86
2022/03/10 07:54:22;;;;;;;;;;;4.20;78.00;;;;;;5067520;28;19912;-86
2022/03/10 07:56:48;;;;;;;;;;;4.30;77.30;;;;;;5052598;28;19916;-86
2022/03/10 07:59:13;;;;;;;;;;;4.40;76.80;;;;;;5071181;28;19917;-86
2022/03/10 08:01:39;;;;;;;;;;;4.60;76.40;;;;;;5067540;28;19966;-86
2022/03/10 08:04:05;;;;;;;;;;;4.70;75.30;;;;;;5075663;22;20325;-86
2022/03/10 08:06:32;;;;;;;;;;;5.00;73.50;;;;;;5080528;28;20307;-86
2022/03/10 08:08:58;;;;;;;;;;;5.10;73.10;;;;;;5079022;28;20298;-86
2022/03/10 08:11:24;;;;;;;;;;;5.20;73.70;;;;;;5073323;28;19920;-86
2022/03/10 08:13:50;;;;;;;;;;;5.30;73.60;;;;;;5060703;28;19955;-86
2022/03/10 08:16:16;;;;;;;;;;;5.40;72.50;;;;;;5071899;28;19952;-86
2022/03/10 08:18:42;;;;;;;;;;;5.40;72.30;;;;;;5070452;28;20398;-86
2022/03/10 08:21:07;;;;;;;;;;;5.70;71.20;;;;;;5070595;28;19913;-86
2022/03/10 08:23:33;;;;;;;;;;;5.80;69.70;;;;;;5075565;28;19916;-86
2022/03/10 08:25:58;;;;;;;;;;;6.00;70.30;;;;;;5071084;28;19916;-86
2022/03/10 08:28:26;;;;;;;;;;;6.00;70.60;;;;;;5075763;28;20015;-86
2022/03/10 08:30:52;;;;;;;;;;;6.20;70.40;;;;;;5072831;28;19913;-86
2022/03/10 08:33:17;;;;;;;;;;;6.30;70.50;;;;;;5067958;28;19920;-86
2022/03/10 08:35:43;;;;;;;;;;;6.40;69.20;;;;;;5074140;28;19943;-86
2022/03/10 08:38:09;;;;;;;;;;;6.50;68.30;;;;;;5073821;28;20336;-86
2022/03/10 08:40:34;;;;;;;;;;;6.80;66.20;;;;;;5081224;28;20285;-86
2022/03/10 08:43:00;;;;;;;;;;;7.00;65.20;;;;;;5073589;28;19919;-86
2022/03/10 08:45:26;;;;;;;;;;;7.30;64.70;;;;;;5077442;28;20459;-86
2022/03/10 08:47:53;;;;;;;;;;;7.40;63.30;;;;;;5076756;28;19919;-86
2022/03/10 08:50:18;;;;;;;;;;;7.40;60.30;;;;;;5067759;28;20011;-86
2022/03/10 08:52:44;;;;;;;;;;;7.50;63.50;;;;;;5077262;28;19999;-86
2022/03/10 08:55:11;;;;;;;;;;;7.60;63.40;;;;;;5071681;28;19912;-86
2022/03/10 08:57:37;;;;;;;;;;;7.70;63.30;;;;;;5068559;28;20378;-86
2022/03/10 09:00:07;;;;;;;;;;;7.80;62.80;;;;;;5071498;28;19952;-86
2022/03/10 09:02:33;;;;;;;;;;;7.90;63.40;;;;;;5070688;28;19969;-86
2022/03/10 09:04:58;;;;;;;;;;;8.00;61.50;;;;;;5070869;28;20292;-86
2022/03/10 09:07:24;;;;;;;;;;;8.10;60.60;;;;;;5070626;28;20332;-86
2022/03/10 09:09:49;;;;;;;;;;;8.30;58.00;;;;;;5073832;28;19913;-87
2022/03/10 09:12:15;;;;;;;;;;;8.40;58.20;;;;;;5075039;28;19916;-87
2022/03/10 09:14:40;;;;;;;;;;;8.50;58.80;;;;;;5074525;28;19912;-87
2022/03/10 09:17:06;;;;;;;;;;;8.60;57.90;;;;;;5073718;28;19919;-87
2022/03/10 09:19:31;;;;;;;;;;;8.80;56.90;;;;;;5073739;28;20050;-86
2022/03/10 09:21:58;;;;;;;;;;;8.90;54.20;;;;;;5074334;28;19964;-86
2022/03/10 09:24:24;;;;;;;;;;;9.10;55.80;;;;;;5072868;28;19912;-86
2022/03/10 09:26:50;;;;;;;;;;;9.30;54.00;;;;;;5063137;28;19919;-86
2022/03/10 09:29:15;;;;;;;;;;;9.40;54.00;;;;;;5069885;28;19942;-86
2022/03/10 09:31:41;;;;;;;;;;;9.60;52.10;;;;;;5056979;28;19913;-86
2022/03/10 09:34:07;;;;;;;;;;;9.70;52.50;;;;;;5073599;28;19913;-86
2022/03/10 09:36:33;;;;;;;;;;;9.70;53.20;;;;;;5051101;28;19917;-86
2022/03/10 09:38:59;;;;;;;;;;;9.90;52.90;;;;;;5072159;28;20281;-87
2022/03/10 09:41:25;;;;;;;;;;;10.00;51.60;;;;;;5074280;28;19963;-86
2022/03/10 09:43:50;;;;;;;;;;;10.30;51.80;;;;;;5072914;28;19920;-87
2022/03/10 09:46:16;;;;;;;;;;;10.40;49.40;;;;;;5072554;28;19916;-87
2022/03/10 09:48:42;;;;;;;;;;;10.60;49.30;;;;;;5072682;28;19954;-86
2022/03/10 09:51:09;;;;;;;;;;;10.70;49.40;;;;;;5074146;28;19920;-87
2022/03/10 09:53:35;;;;;;;;;;;10.90;47.30;;;;;;5074728;28;19920;-86
2022/03/10 09:56:02;;;;;;;;;;;10.90;47.10;;;;;;5069202;28;19935;-86
2022/03/10 09:58:28;;;;;;;;;;;10.90;48.80;;;;;;5077037;28;19919;-86
2022/03/10 10:01:08;;;;;;;;;;;11.00;47.50;;;;;;5068372;28;19920;-86
2022/03/10 10:03:34;;;;;;;;;;;10.90;46.30;;;;;;5072177;28;19920;-86
2022/03/10 10:06:00;;;;;;;;;;;10.80;45.40;;;;;;5074509;28;20467;-87
2022/03/10 10:08:26;;;;;;;;;;;10.80;45.60;;;;;;5076958;28;20337;-86
2022/03/10 10:10:53;;;;;;;;;;;10.90;45.20;;;;;;5076027;28;19986;-86
2022/03/10 10:13:29;;;;;;;;;;;11.10;43.80;;;;;;5083015;28;19916;-87
2022/03/10 10:16:03;;;;;;;;;;;11.30;42.50;;;;;;5074403;28;19908;-87
2022/03/10 10:18:29;;;;;;;;;;;11.40;41.70;;;;;;5069013;28;19916;-87
2022/03/10 10:20:55;;;;;;;;;;;11.60;41.60;;;;;;5074569;28;19919;-87
2022/03/10 10:23:25;;;;;;;;;;;11.80;41.90;;;;;;5081651;28;19959;-87
2022/03/10 10:25:51;;;;;;;;;;;11.90;42.00;;;;;;5076123;28;19913;-87
2022/03/10 10:28:23;;;;;;;;;;;12.00;42.30;;;;;;5075846;28;20362;-86
2022/03/10 10:31:04;;;;;;;;;;;12.00;42.40;;;;;;5077388;28;19970;-86
2022/03/10 10:33:31;;;;;;;;;;;12.00;41.90;;;;;;5054012;28;19913;-86
2022/03/10 10:36:13;;;;;;;;;;;12.00;40.80;;;;;;5051582;28;19915;-86
2022/03/10 10:38:39;;;;;;;;;;;11.90;42.00;;;;;;5072014;28;19920;-86
2022/03/10 10:41:17;;;;;;;;;;;11.90;42.50;;;;;;5075303;28;19978;-87
2022/03/10 10:43:46;;;;;;;;;;;12.00;41.20;;;;;;5069997;28;19921;-87
2022/03/10 10:46:30;;;;;;;;;;;12.20;41.50;;;;;;5071106;28;20644;-86
2022/03/10 10:48:57;;;;;;;;;;;12.40;41.00;;;;;;5070427;28;19912;-87
2022/03/10 10:51:36;;;;;;;;;;;12.50;40.00;;;;;;5069758;28;19973;-87
2022/03/10 10:54:03;;;;;;;;;;;12.60;40.40;;;;;;5067050;28;19919;-87
2022/03/10 10:56:29;;;;;;;;;;;12.70;38.00;;;;;;5072406;28;19920;-87
2022/03/10 10:58:55;;;;;;;;;;;12.80;37.40;;;;;;5073369;28;19978;-87
2022/03/10 11:01:34;;;;;;;;;;;12.90;37.00;;;;;;5053107;28;19947;-87
2022/03/10 11:04:00;;;;;;;;;;;12.70;37.10;;;;;;5068736;28;19969;-86
2022/03/10 11:06:26;;;;;;;;;;;12.50;37.90;;;;;;5071513;28;19920;-87
2022/03/10 11:08:52;;;;;;;;;;;12.40;38.60;;;;;;5072161;28;19931;-87
2022/03/10 11:11:18;;;;;;;;;;;12.50;39.00;;;;;;5087843;28;19912;-86
2022/03/10 11:13:44;;;;;;;;;;;12.60;38.50;;;;;;5073558;28;19923;-87
2022/03/10 11:16:10;;;;;;;;;;;12.90;38.70;;;;;;5054537;28;19912;-87
2022/03/10 11:18:36;;;;;;;;;;;13.20;39.40;;;;;;5072420;28;19913;-87
2022/03/10 11:21:17;;;;;;;;;;;13.40;40.40;;;;;;5073433;28;19952;-86
2022/03/10 11:23:45;;;;;;;;;;;13.50;37.30;;;;;;5076672;28;19958;-87
2022/03/10 11:26:19;;;;;;;;;;;13.70;37.30;;;;;;5073488;28;19913;-87
2022/03/10 11:28:46;;;;;;;;;;;14.00;37.20;;;;;;5073145;28;19919;-87
2022/03/10 11:31:12;;;;;;;;;;;14.30;35.70;;;;;;5072544;28;19909;-87
2022/03/10 11:33:38;;;;;;;;;;;14.30;35.70;;;;;;5073428;28;20370;-87
2022/03/10 11:36:20;;;;;;;;;;;14.00;36.90;;;;;;5073159;28;19916;-87
2022/03/10 11:39:02;;;;;;;;;;;13.90;35.60;;;;;;5073730;28;19913;-86
2022/03/10 11:41:50;;;;;;;;;;;14.00;35.40;;;;;;5072739;28;19916;-87
2022/03/10 11:44:22;;;;;;;;;;;14.10;36.00;;;;;;5071617;28;19912;-87
2022/03/10 11:46:57;;;;;;;;;;;14.40;35.70;;;;;;5073487;28;20011;-87
2022/03/10 11:49:25;;;;;;;;;;;14.30;35.50;;;;;;5073304;28;19962;-87
2022/03/10 11:51:56;;;;;;;;;;;14.30;36.00;;;;;;5072937;28;19909;-87
2022/03/10 11:54:31;;;;;;;;;;;14.40;34.80;;;;;;5072945;28;20004;-87
2022/03/10 11:56:58;;;;;;;;;;;14.90;34.80;;;;;;5073192;28;19934;-87
2022/03/10 11:59:36;;;;;;;;;;;15.30;33.90;;;;;;5072788;28;20010;-87
2022/03/10 12:02:02;;;;;;;;;;;15.30;33.70;;;;;;5073124;28;19915;-87
2022/03/10 12:04:35;;;;;;;;;;;15.50;34.10;;;;;;5054360;28;19921;-87
2022/03/10 12:07:01;;;;;;;;;;;15.50;34.10;;;;;;5072668;28;20289;-87
2022/03/10 12:09:28;;;;;;;;;;;15.10;32.20;;;;;;5072969;28;19909;-87
2022/03/10 12:11:54;;;;;;;;;;;15.00;32.80;;;;;;5072898;28;19916;-87
2022/03/10 12:14:23;;;;;;;;;;;15.10;31.80;;;;;;5072209;28;19920;-87
2022/03/10 12:16:49;;;;;;;;;;;15.20;33.60;;;;;;5072713;28;20416;-87
2022/03/10 12:19:14;;;;;;;;;;;15.30;33.80;;;;;;5072653;28;20017;-87
2022/03/10 12:21:40;;;;;;;;;;;15.70;33.20;;;;;;5073240;28;19954;-87
2022/03/10 12:24:05;;;;;;;;;;;15.90;29.90;;;;;;5072305;28;19955;-87
2022/03/10 12:26:35;;;;;;;;;;;16.20;32.80;;;;;;5072463;28;20285;-87
2022/03/10 12:29:05;;;;;;;;;;;16.50;30.60;;;;;;5071862;28;19956;-88
2022/03/10 12:31:35;;;;;;;;;;;17.20;29.50;;;;;;5069653;28;20073;-88
2022/03/10 12:34:03;;;;;;;;;;;18.00;28.60;;;;;;5070864;28;19912;-88
2022/03/10 12:36:29;;;;;;;;;;;18.90;28.30;;;;;;5058350;28;19913;-88
2022/03/10 12:38:54;;;;;;;;;;;19.70;25.50;;;;;;5074550;28;19913;-88
2022/03/10 12:41:25;;;;;;;;;;;19.90;25.10;;;;;;5078024;28;19920;-87
2022/03/10 12:43:54;;;;;;;;;;;19.50;23.90;;;;;;5077099;28;20425;-87
2022/03/10 12:46:20;;;;;;;;;;;19.20;24.20;;;;;;5079760;28;20392;-87
2022/03/10 12:48:57;;;;;;;;;;;19.20;25.00;;;;;;5074280;28;19920;-87
2022/03/10 12:51:28;;;;;;;;;;;19.90;23.60;;;;;;5073093;28;19920;-88
2022/03/10 12:53:54;;;;;;;;;;;20.80;23.30;;;;;;5073602;28;19917;-87
2022/03/10 12:56:20;;;;;;;;;;;20.80;23.30;;;;;;5070874;28;19931;-87
2022/03/10 12:58:46;;;;;;;;;;;20.60;22.80;;;;;;5070864;28;19920;-88
2022/03/10 13:01:12;;;;;;;;;;;21.80;22.40;;;;;;5071826;28;20396;-88
2022/03/10 13:03:54;;;;;;;;;;;22.90;20.80;;;;;;5070745;28;19935;-88
2022/03/10 13:06:21;;;;;;;;;;;23.80;19.40;;;;;;5074354;28;20393;-88
2022/03/10 13:08:51;;;;;;;;;;;23.70;19.70;;;;;;5075304;28;19921;-88
2022/03/10 13:11:26;;;;;;;;;;;23.60;20.60;;;;;;5076033;28;19917;-88
2022/03/10 13:14:07;;;;;;;;;;;23.70;19.70;;;;;;5075757;28;19913;-88
2022/03/10 13:16:37;;;;;;;;;;;23.70;20.40;;;;;;5076289;28;19916;-87
2022/03/10 13:19:03;;;;;;;;;;;23.00;20.00;;;;;;5074632;28;20336;-88
2022/03/10 13:21:28;;;;;;;;;;;22.80;20.70;;;;;;5071433;28;19912;-87
2022/03/10 13:23:54;;;;;;;;;;;22.30;20.50;;;;;;5074243;28;20555;-88
2022/03/10 13:26:21;;;;;;;;;;;22.50;20.50;;;;;;5073765;28;19923;-88
2022/03/10 13:28:47;;;;;;;;;;;22.30;19.80;;;;;;5075245;28;19960;-88
2022/03/10 13:31:13;;;;;;;;;;;23.00;21.60;;;;;;5077859;28;19982;-88
2022/03/10 13:33:38;;;;;;;;;;;23.60;20.40;;;;;;5074118;28;20377;-88
2022/03/10 13:36:04;;;;;;;;;;;24.00;20.20;;;;;;5075345;28;19951;-88
2022/03/10 13:38:30;;;;;;;;;;;24.90;19.50;;;;;;5073950;28;19912;-88
2022/03/10 13:41:01;;;;;;;;;;;25.50;18.90;;;;;;5073517;28;20400;-88
2022/03/10 13:43:34;;;;;;;;;;;26.20;17.10;;;;;;5073796;28;19920;-88
2022/03/10 13:46:09;;;;;;;;;;;25.10;18.10;;;;;;5075245;28;19939;-88
2022/03/10 13:48:34;;;;;;;;;;;25.70;17.10;;;;;;5075089;28;19920;-88
2022/03/10 13:51:04;;;;;;;;;;;26.50;15.80;;;;;;5075649;28;20354;-88
2022/03/10 13:53:30;;;;;;;;;;;26.80;14.90;;;;;;5074471;28;19917;-88
2022/03/10 13:55:59;;;;;;;;;;;25.80;14.00;;;;;;5076807;28;19918;-88
2022/03/10 13:58:25;;;;;;;;;;;25.30;14.50;;;;;;5071392;28;19916;-88
2022/03/10 14:00:52;;;;;;;;;;;25.50;13.00;;;;;;5072437;28;20293;-87
2022/03/10 14:03:24;;;;;;;;;;;25.30;13.90;;;;;;5073925;28;19990;-88
2022/03/10 14:05:59;;;;;;;;;;;25.20;13.40;;;;;;5073977;28;20435;-88
2022/03/10 14:08:25;;;;;;;;;;;25.70;15.00;;;;;;5070954;28;19969;-87
2022/03/10 14:11:08;;;;;;;;;;;25.30;15.60;;;;;;5075808;28;19912;-88
2022/03/10 14:13:41;;;;;;;;;;;24.80;15.40;;;;;;5071413;28;19912;-87
2022/03/10 14:16:08;;;;;;;;;;;24.30;17.60;;;;;;5073628;28;20016;-88
2022/03/10 14:18:35;;;;;;;;;;;24.50;17.80;;;;;;5078050;28;19912;-88
2022/03/10 14:21:04;;;;;;;;;;;24.20;16.80;;;;;;5076425;28;19920;-88
2022/03/10 14:23:29;;;;;;;;;;;23.40;16.70;;;;;;5074328;28;20159;-88
2022/03/10 14:25:56;;;;;;;;;;;24.20;17.60;;;;;;5077120;28;20277;-88
2022/03/10 14:28:42;;;;;;;;;;;25.20;16.00;;;;;;5073017;28;19912;-89
2022/03/10 14:31:12;;;;;;;;;;;26.30;16.40;;;;;;5070707;28;19934;-89